Time;durP1;ratioP1;P1;durP2;ratioP2;P2;SDS_P1;SDS_P2;PMS_P1;PMS_P2;Temp;Humidity;BMP_temperature;BMP_pressure;BME280_temperature;BME280_humidity;BME280_pressure;Samples;Min_cycle;Max_cycle;Signal;HPM_P1;HPM_P2
2023/07/20 00:00:07;;;;;;;6.53;4.32;;;;;;;;;;4367082;32;316980;-83
2023/07/20 00:02:33;;;;;;;11.20;4.78;;;;;;;;;;4366615;32;317014;-83
2023/07/20 00:05:00;;;;;;;14.30;4.05;;;;;;;;;;4355793;32;318280;-84
2023/07/20 00:07:27;;;;;;;21.67;4.80;;;;;;;;;;4366051;32;318419;-83
2023/07/20 00:09:54;;;;;;;10.90;5.07;;;;;;;;;;4356280;32;318123;-84
2023/07/20 00:12:20;;;;;;;21.62;5.68;;;;;;;;;;4368275;32;318283;-83
2023/07/20 00:14:48;;;;;;;16.23;4.57;;;;;;;;;;4370927;32;318480;-83
2023/07/20 00:17:15;;;;;;;6.85;4.12;;;;;;;;;;4380880;32;317519;-83
2023/07/20 00:19:42;;;;;;;10.55;4.85;;;;;;;;;;4369362;32;317463;-84
2023/07/20 00:22:09;;;;;;;12.55;5.05;;;;;;;;;;4378799;32;318266;-83
2023/07/20 00:24:35;;;;;;;14.07;4.87;;;;;;;;;;4365158;32;317952;-84
2023/07/20 00:27:02;;;;;;;11.30;4.50;;;;;;;;;;4356323;32;318188;-84
2023/07/20 00:29:29;;;;;;;7.82;4.25;;;;;;;;;;4381742;32;318068;-84
2023/07/20 00:31:57;;;;;;;10.75;4.68;;;;;;;;;;4387018;32;317270;-83
2023/07/20 00:34:24;;;;;;;8.93;5.20;;;;;;;;;;4416886;32;20217;-83
2023/07/20 00:36:50;;;;;;;12.98;5.60;;;;;;;;;;4416235;32;20290;-84
2023/07/20 00:39:17;;;;;;;9.02;5.07;;;;;;;;;;4396466;32;317322;-84
2023/07/20 00:41:44;;;;;;;10.50;4.70;;;;;;;;;;4396699;32;317244;-84
2023/07/20 00:44:11;;;;;;;11.10;5.12;;;;;;;;;;4385010;32;318805;-83
2023/07/20 00:46:37;;;;;;;8.95;4.82;;;;;;;;;;4395554;32;318401;-83
2023/07/20 00:49:06;;;;;;;12.43;5.37;;;;;;;;;;4396630;32;316834;-83
2023/07/20 00:51:32;;;;;;;7.53;5.32;;;;;;;;;;4382663;32;417384;-83
2023/07/20 00:54:00;;;;;;;9.30;5.37;;;;;;;;;;4393231;32;317222;-83
2023/07/20 00:56:26;;;;;;;8.30;4.37;;;;;;;;;;4381238;32;317146;-83
2023/07/20 00:58:53;;;;;;;13.52;5.07;;;;;;;;;;4390125;32;317261;-83
2023/07/20 01:01:20;;;;;;;9.10;5.12;;;;;;;;;;4401084;32;20272;-84
2023/07/20 01:03:47;;;;;;;13.52;4.55;;;;;;;;;;4400908;32;20236;-83
2023/07/20 01:06:29;;;;;;;11.68;5.80;;;;;;;;;;4380290;32;317164;-84
2023/07/20 01:09:06;;;;;;;13.27;4.95;;;;;;;;;;4390270;32;318046;-83
2023/07/20 01:11:39;;;;;;;9.75;4.32;;;;;;;;;;4401510;32;20677;-84
2023/07/20 01:14:07;;;;;;;7.70;4.12;;;;;;;;;;4388741;32;316267;-83
2023/07/20 01:16:34;;;;;;;8.48;3.70;;;;;;;;;;4381279;32;317368;-84
2023/07/20 01:19:01;;;;;;;13.05;4.55;;;;;;;;;;4400902;32;20272;-85
2023/07/20 01:21:35;;;;;;;14.60;4.35;;;;;;;;;;4401600;32;20235;-85
2023/07/20 01:24:39;;;;;;;11.52;4.70;;;;;;;;;;4401339;32;20217;-83
2023/07/20 01:27:32;;;;;;;14.07;4.40;;;;;;;;;;4378486;32;317809;-86
2023/07/20 01:30:15;;;;;;;7.97;4.65;;;;;;;;;;4377419;32;316790;-83
2023/07/20 01:32:44;;;;;;;11.90;4.15;;;;;;;;;;4386162;32;20293;-85
2023/07/20 01:35:15;;;;;;;12.10;4.45;;;;;;;;;;4385675;32;20294;-86
2023/07/20 01:37:43;;;;;;;14.00;4.68;;;;;;;;;;4385617;32;20299;-83
2023/07/20 01:40:11;;;;;;;8.23;4.40;;;;;;;;;;4386369;32;20330;-82
2023/07/20 01:42:38;;;;;;;8.88;4.22;;;;;;;;;;4365846;32;316262;-86
2023/07/20 01:45:05;;;;;;;8.35;4.35;;;;;;;;;;4375927;32;317092;-85
2023/07/20 01:47:32;;;;;;;11.48;3.75;;;;;;;;;;4385959;32;20310;-83
2023/07/20 01:50:00;;;;;;;8.95;4.65;;;;;;;;;;4386126;32;20222;-86
2023/07/20 01:52:27;;;;;;;5.53;3.05;;;;;;;;;;4385954;32;20338;-83
2023/07/20 01:54:53;;;;;;;10.45;4.20;;;;;;;;;;4382148;32;316770;-83
2023/07/20 01:57:20;;;;;;;7.55;3.65;;;;;;;;;;4383735;32;318145;-85
2023/07/20 01:59:47;;;;;;;10.63;4.10;;;;;;;;;;4404329;32;20711;-84
2023/07/20 02:02:14;;;;;;;9.73;4.93;;;;;;;;;;4403660;32;20256;-84
2023/07/20 02:04:41;;;;;;;9.23;3.75;;;;;;;;;;4393306;32;315494;-84
2023/07/20 02:07:09;;;;;;;8.98;4.60;;;;;;;;;;4372601;32;317094;-83
2023/07/20 02:09:35;;;;;;;16.58;3.87;;;;;;;;;;4403983;32;20241;-84
2023/07/20 02:12:02;;;;;;;14.32;4.65;;;;;;;;;;4403474;32;20252;-83
2023/07/20 02:14:29;;;;;;;15.65;4.90;;;;;;;;;;4403649;32;20538;-83
2023/07/20 02:16:59;;;;;;;8.65;4.12;;;;;;;;;;4382377;32;316745;-83
2023/07/20 02:19:26;;;;;;;9.57;4.32;;;;;;;;;;4393871;32;316378;-84
2023/07/20 02:21:53;;;;;;;6.03;4.22;;;;;;;;;;4403677;32;20275;-83
2023/07/20 02:24:21;;;;;;;10.95;4.32;;;;;;;;;;4403600;32;20253;-84
2023/07/20 02:26:48;;;;;;;11.15;3.90;;;;;;;;;;4382275;32;317300;-84
2023/07/20 02:29:14;;;;;;;9.50;3.90;;;;;;;;;;4372123;32;333823;-83
2023/07/20 02:31:42;;;;;;;8.15;4.32;;;;;;;;;;4383486;32;317297;-83
2023/07/20 02:34:09;;;;;;;10.52;5.03;;;;;;;;;;4393201;32;317144;-83
2023/07/20 02:36:36;;;;;;;9.05;4.32;;;;;;;;;;4370619;32;417343;-83
2023/07/20 02:39:03;;;;;;;12.82;4.57;;;;;;;;;;4393449;32;315747;-83
2023/07/20 02:41:31;;;;;;;9.43;4.57;;;;;;;;;;4402515;32;20241;-84
2023/07/20 02:43:58;;;;;;;12.65;4.55;;;;;;;;;;4403064;32;20319;-84
2023/07/20 02:46:25;;;;;;;12.80;5.75;;;;;;;;;;4393026;32;317296;-83
2023/07/20 02:48:51;;;;;;;8.23;4.43;;;;;;;;;;4382514;32;318199;-83
2023/07/20 02:51:18;;;;;;;11.27;4.35;;;;;;;;;;4402740;32;20830;-84
2023/07/20 02:53:45;;;;;;;12.48;4.20;;;;;;;;;;4391322;32;316583;-83
2023/07/20 02:56:12;;;;;;;12.48;4.45;;;;;;;;;;4380535;32;318539;-83
2023/07/20 02:58:43;;;;;;;7.28;4.35;;;;;;;;;;4388995;32;20292;-81
2023/07/20 03:01:10;;;;;;;10.80;4.60;;;;;;;;;;4403165;32;20313;-83
2023/07/20 03:03:39;;;;;;;12.43;4.15;;;;;;;;;;4392685;32;316520;-83
2023/07/20 03:06:06;;;;;;;9.52;4.55;;;;;;;;;;4381996;32;318479;-83
2023/07/20 03:08:32;;;;;;;12.75;4.35;;;;;;;;;;4379560;32;418084;-84
2023/07/20 03:10:59;;;;;;;8.02;3.92;;;;;;;;;;4402684;32;20780;-84
2023/07/20 03:13:26;;;;;;;10.75;5.05;;;;;;;;;;4402264;32;20302;-83
2023/07/20 03:15:54;;;;;;;9.88;4.22;;;;;;;;;;4381473;32;317226;-83
2023/07/20 03:18:21;;;;;;;7.43;4.40;;;;;;;;;;4392820;32;316922;-84
2023/07/20 03:20:48;;;;;;;8.23;4.05;;;;;;;;;;4381933;32;317492;-84
2023/07/20 03:23:16;;;;;;;15.20;4.47;;;;;;;;;;4382667;32;317185;-84
2023/07/20 03:25:43;;;;;;;16.42;4.15;;;;;;;;;;4372708;32;317902;-83
2023/07/20 03:28:10;;;;;;;8.80;4.05;;;;;;;;;;4377326;32;335701;-83
2023/07/20 03:30:36;;;;;;;7.87;4.15;;;;;;;;;;4356641;32;326131;-84
2023/07/20 03:33:04;;;;;;;18.23;5.25;;;;;;;;;;4367586;32;317255;-83
2023/07/20 03:35:31;;;;;;;7.87;4.18;;;;;;;;;;4377677;32;317993;-83
2023/07/20 03:37:58;;;;;;;12.35;4.25;;;;;;;;;;4367969;32;316554;-83
2023/07/20 03:40:25;;;;;;;13.55;4.55;;;;;;;;;;4356768;32;318195;-83
2023/07/20 03:42:51;;;;;;;12.93;4.87;;;;;;;;;;4366201;32;318838;-83
2023/07/20 03:45:18;;;;;;;6.57;4.20;;;;;;;;;;4358021;32;318457;-83
2023/07/20 03:47:46;;;;;;;14.60;4.93;;;;;;;;;;4367519;32;317263;-84
2023/07/20 03:50:15;;;;;;;16.37;5.32;;;;;;;;;;4372345;32;318476;-83
2023/07/20 03:52:42;;;;;;;13.13;4.67;;;;;;;;;;4367630;32;417722;-83
2023/07/20 03:55:09;;;;;;;13.82;4.97;;;;;;;;;;4382465;32;317574;-84
2023/07/20 03:57:36;;;;;;;17.17;4.35;;;;;;;;;;4382479;32;318241;-84
2023/07/20 04:00:03;;;;;;;11.20;4.65;;;;;;;;;;4371438;32;318446;-84
2023/07/20 04:02:30;;;;;;;8.02;4.72;;;;;;;;;;4380804;32;318518;-84
2023/07/20 04:04:57;;;;;;;11.98;5.60;;;;;;;;;;4372718;32;317451;-84
2023/07/20 04:07:25;;;;;;;13.52;4.28;;;;;;;;;;4381103;32;317732;-84
2023/07/20 04:09:52;;;;;;;19.40;5.62;;;;;;;;;;4390843;32;317817;-84
2023/07/20 04:12:18;;;;;;;8.80;4.40;;;;;;;;;;4389256;32;317585;-83
2023/07/20 04:14:45;;;;;;;8.65;4.32;;;;;;;;;;4367551;32;317472;-84
2023/07/20 04:17:13;;;;;;;13.85;4.97;;;;;;;;;;4386798;32;20229;-84
2023/07/20 04:19:40;;;;;;;14.43;4.30;;;;;;;;;;4387207;32;20234;-84
2023/07/20 04:22:06;;;;;;;15.15;5.60;;;;;;;;;;4386994;32;20318;-84
2023/07/20 04:24:34;;;;;;;15.15;4.85;;;;;;;;;;4366828;32;316696;-84
2023/07/20 04:27:01;;;;;;;10.82;5.80;;;;;;;;;;4388731;32;419148;-84
2023/07/20 04:29:28;;;;;;;13.40;5.18;;;;;;;;;;4402023;32;20244;-84
2023/07/20 04:31:55;;;;;;;8.18;5.03;;;;;;;;;;4402039;32;20685;-84
2023/07/20 04:34:21;;;;;;;20.25;5.90;;;;;;;;;;4390722;32;316133;-83
2023/07/20 04:36:48;;;;;;;19.67;5.32;;;;;;;;;;4380805;32;317943;-81
2023/07/20 04:39:15;;;;;;;11.73;5.60;;;;;;;;;;4401779;32;20242;-84
2023/07/20 04:41:43;;;;;;;10.13;4.55;;;;;;;;;;4401590;32;20245;-83
2023/07/20 04:44:10;;;;;;;12.82;4.45;;;;;;;;;;4402273;32;20267;-83
2023/07/20 04:46:37;;;;;;;14.82;5.35;;;;;;;;;;4378130;32;317413;-83
2023/07/20 04:49:04;;;;;;;22.67;4.35;;;;;;;;;;4390669;32;317941;-85
2023/07/20 04:51:31;;;;;;;14.90;5.35;;;;;;;;;;4401429;32;20829;-83
2023/07/20 04:53:58;;;;;;;20.27;5.07;;;;;;;;;;4401491;32;20225;-84
2023/07/20 04:56:25;;;;;;;12.27;4.95;;;;;;;;;;4401285;32;20239;-84
2023/07/20 04:58:53;;;;;;;15.20;4.32;;;;;;;;;;4381801;32;317247;-83
2023/07/20 05:01:20;;;;;;;14.80;5.35;;;;;;;;;;4391634;32;316985;-84
2023/07/20 05:03:46;;;;;;;8.80;4.43;;;;;;;;;;4401249;32;20727;-83
2023/07/20 05:06:13;;;;;;;15.32;5.55;;;;;;;;;;4401386;32;20218;-84
2023/07/20 05:08:40;;;;;;;11.75;4.68;;;;;;;;;;4380373;32;317197;-84
2023/07/20 05:11:07;;;;;;;10.80;4.47;;;;;;;;;;4390953;32;318227;-84
2023/07/20 05:13:33;;;;;;;16.05;5.20;;;;;;;;;;4401407;32;20644;-84
2023/07/20 05:16:01;;;;;;;12.25;4.78;;;;;;;;;;4401687;32;20259;-84
2023/07/20 05:18:28;;;;;;;10.15;4.95;;;;;;;;;;4391079;32;316726;-84
2023/07/20 05:20:55;;;;;;;9.10;3.70;;;;;;;;;;4381597;32;318276;-84
2023/07/20 05:23:22;;;;;;;11.85;4.75;;;;;;;;;;4401254;32;20288;-83
2023/07/20 05:25:55;;;;;;;14.18;5.37;;;;;;;;;;4400981;32;20723;-84
2023/07/20 05:28:21;;;;;;;14.43;5.50;;;;;;;;;;4390349;32;316762;-83
2023/07/20 05:30:48;;;;;;;15.40;4.75;;;;;;;;;;4380419;32;317616;-84
2023/07/20 05:33:16;;;;;;;16.60;5.00;;;;;;;;;;4404483;32;20731;-84
2023/07/20 05:35:43;;;;;;;14.38;5.05;;;;;;;;;;4404250;32;20282;-84
2023/07/20 05:38:10;;;;;;;10.98;4.40;;;;;;;;;;4404018;32;20555;-84
2023/07/20 05:40:38;;;;;;;15.65;5.40;;;;;;;;;;4383542;32;317244;-84
2023/07/20 05:43:05;;;;;;;12.35;5.37;;;;;;;;;;4394653;32;317521;-84
2023/07/20 05:45:31;;;;;;;7.87;4.80;;;;;;;;;;4403950;32;20294;-84
2023/07/20 05:47:58;;;;;;;21.05;5.45;;;;;;;;;;4404218;32;20595;-84
2023/07/20 05:50:26;;;;;;;12.20;4.57;;;;;;;;;;4404064;32;20233;-84
2023/07/20 05:52:54;;;;;;;8.00;5.35;;;;;;;;;;4372215;32;316593;-84
2023/07/20 05:55:20;;;;;;;12.65;4.72;;;;;;;;;;4403502;32;20250;-84
2023/07/20 05:57:48;;;;;;;7.65;5.10;;;;;;;;;;4404205;32;20253;-84
2023/07/20 06:00:16;;;;;;;18.83;5.47;;;;;;;;;;4404122;32;20205;-84
2023/07/20 06:02:43;;;;;;;13.45;5.25;;;;;;;;;;4403878;32;20355;-84
2023/07/20 06:05:10;;;;;;;10.82;5.15;;;;;;;;;;4403581;32;20297;-84
2023/07/20 06:07:38;;;;;;;10.65;4.85;;;;;;;;;;4372053;32;317643;-83
2023/07/20 06:10:06;;;;;;;9.15;4.72;;;;;;;;;;4403729;32;20271;-84
2023/07/20 06:12:33;;;;;;;11.75;5.15;;;;;;;;;;4393792;32;318347;-84
2023/07/20 06:15:03;;;;;;;15.57;4.62;;;;;;;;;;4403772;32;20530;-84
2023/07/20 06:17:31;;;;;;;11.07;5.15;;;;;;;;;;4382170;32;316900;-84
2023/07/20 06:19:57;;;;;;;16.95;5.50;;;;;;;;;;4392266;32;318368;-82
2023/07/20 06:22:24;;;;;;;24.05;5.57;;;;;;;;;;4403629;32;20225;-84
2023/07/20 06:24:52;;;;;;;9.40;4.30;;;;;;;;;;4403553;32;20213;-84
2023/07/20 06:27:19;;;;;;;10.57;4.95;;;;;;;;;;4392000;32;315553;-83
2023/07/20 06:29:45;;;;;;;12.50;5.55;;;;;;;;;;4366273;32;323354;-83
2023/07/20 06:32:13;;;;;;;8.50;5.00;;;;;;;;;;4382122;32;318118;-84
2023/07/20 06:34:40;;;;;;;11.65;4.55;;;;;;;;;;4372301;32;317281;-84
2023/07/20 06:37:07;;;;;;;10.13;4.65;;;;;;;;;;4383210;32;317484;-84
2023/07/20 06:39:33;;;;;;;11.73;5.50;;;;;;;;;;4372104;32;318226;-85
2023/07/20 06:42:01;;;;;;;16.95;5.07;;;;;;;;;;4381101;32;318164;-86
2023/07/20 06:44:28;;;;;;;6.35;4.85;;;;;;;;;;4404001;32;20232;-86
2023/07/20 06:46:55;;;;;;;9.55;5.00;;;;;;;;;;4403270;32;20225;-87
2023/07/20 06:49:26;;;;;;;11.10;5.87;;;;;;;;;;4403751;32;20234;-87
2023/07/20 06:51:53;;;;;;;14.18;5.32;;;;;;;;;;4403063;32;20233;-88
2023/07/20 06:54:20;;;;;;;18.23;5.00;;;;;;;;;;4370236;32;414967;-86
2023/07/20 06:56:46;;;;;;;14.63;5.18;;;;;;;;;;4402723;32;20632;-81
2023/07/20 06:59:14;;;;;;;9.05;5.47;;;;;;;;;;4403136;32;20612;-80
2023/07/20 07:01:41;;;;;;;13.95;5.60;;;;;;;;;;4393414;32;316411;-83
2023/07/20 07:04:08;;;;;;;9.43;5.03;;;;;;;;;;4383006;32;318341;-82
2023/07/20 07:06:36;;;;;;;8.77;5.05;;;;;;;;;;4402794;32;20296;-82
2023/07/20 07:09:03;;;;;;;25.17;7.07;;;;;;;;;;4403373;32;20249;-82
2023/07/20 07:11:30;;;;;;;15.45;5.93;;;;;;;;;;4402867;32;20912;-83
2023/07/20 07:13:57;;;;;;;12.18;5.53;;;;;;;;;;4402128;32;20233;-82
2023/07/20 07:16:25;;;;;;;15.77;5.53;;;;;;;;;;4380067;32;317200;-83
2023/07/20 07:18:52;;;;;;;8.82;4.93;;;;;;;;;;4377525;32;318238;-83
2023/07/20 07:21:19;;;;;;;10.38;5.30;;;;;;;;;;4386628;32;20644;-83
2023/07/20 07:23:47;;;;;;;12.23;5.43;;;;;;;;;;4387440;32;20601;-84
2023/07/20 07:26:14;;;;;;;12.55;4.93;;;;;;;;;;4387286;32;20238;-81
2023/07/20 07:28:40;;;;;;;15.32;5.53;;;;;;;;;;4387628;32;20359;-81
2023/07/20 07:31:07;;;;;;;12.10;5.03;;;;;;;;;;4388015;32;20241;-81
2023/07/20 07:33:35;;;;;;;12.15;5.72;;;;;;;;;;4356858;32;317257;-81
2023/07/20 07:36:02;;;;;;;12.07;5.80;;;;;;;;;;4366524;32;318667;-81
2023/07/20 07:38:29;;;;;;;15.93;5.03;;;;;;;;;;4357217;32;336264;-81
2023/07/20 07:40:56;;;;;;;14.68;6.05;;;;;;;;;;4367524;32;318356;-81
2023/07/20 07:43:22;;;;;;;8.93;5.03;;;;;;;;;;4367966;32;318069;-81
2023/07/20 07:45:49;;;;;;;11.23;5.10;;;;;;;;;;4367769;32;317223;-80
2023/07/20 07:48:17;;;;;;;29.10;6.32;;;;;;;;;;4357080;32;318701;-82
2023/07/20 07:50:45;;;;;;;14.35;4.72;;;;;;;;;;4378320;32;318071;-82
2023/07/20 07:53:11;;;;;;;14.10;5.82;;;;;;;;;;4382872;32;318062;-82
2023/07/20 07:55:38;;;;;;;11.95;4.72;;;;;;;;;;4372092;32;318632;-82
2023/07/20 07:58:05;;;;;;;16.92;5.25;;;;;;;;;;4382225;32;317698;-82
2023/07/20 08:00:31;;;;;;;10.18;4.55;;;;;;;;;;4390304;32;317997;-82
2023/07/20 08:02:58;;;;;;;15.75;5.03;;;;;;;;;;4417166;32;20287;-82
2023/07/20 08:05:25;;;;;;;14.23;5.22;;;;;;;;;;4416692;32;20301;-82
2023/07/20 08:07:54;;;;;;;12.85;5.20;;;;;;;;;;4417077;32;20320;-82
2023/07/20 08:10:20;;;;;;;16.15;4.80;;;;;;;;;;4394740;32;317645;-82
2023/07/20 08:12:47;;;;;;;8.38;5.12;;;;;;;;;;4389314;32;318358;-81
2023/07/20 08:15:14;;;;;;;13.98;5.15;;;;;;;;;;4402413;32;20245;-82
2023/07/20 08:17:43;;;;;;;19.80;5.50;;;;;;;;;;4379240;32;317482;-82
2023/07/20 08:20:12;;;;;;;16.23;4.80;;;;;;;;;;4380508;32;318337;-82
2023/07/20 08:22:38;;;;;;;9.98;3.87;;;;;;;;;;4380527;32;318106;-82
2023/07/20 08:25:08;;;;;;;9.63;4.18;;;;;;;;;;4381872;32;317201;-82
2023/07/20 08:27:35;;;;;;;13.13;4.50;;;;;;;;;;4368163;32;416168;-82
2023/07/20 08:30:02;;;;;;;8.98;4.07;;;;;;;;;;4381148;32;318220;-82
2023/07/20 08:32:29;;;;;;;14.77;4.78;;;;;;;;;;4380708;32;317358;-82
2023/07/20 08:34:55;;;;;;;15.57;4.70;;;;;;;;;;4401598;32;20248;-82
2023/07/20 08:37:23;;;;;;;11.15;5.20;;;;;;;;;;4381344;32;317209;-82
2023/07/20 08:39:49;;;;;;;10.38;4.62;;;;;;;;;;4381511;32;317816;-82
2023/07/20 08:42:18;;;;;;;16.42;4.87;;;;;;;;;;4371067;32;318161;-81
2023/07/20 08:44:46;;;;;;;12.40;4.40;;;;;;;;;;4382277;32;318175;-82
2023/07/20 08:47:14;;;;;;;8.30;4.35;;;;;;;;;;4369709;32;318249;-82
2023/07/20 08:49:42;;;;;;;16.90;4.43;;;;;;;;;;4380322;32;317055;-82
2023/07/20 08:52:09;;;;;;;12.80;4.40;;;;;;;;;;4371156;32;347838;-82
2023/07/20 08:54:36;;;;;;;9.15;4.40;;;;;;;;;;4380419;32;317702;-82
2023/07/20 08:57:05;;;;;;;10.13;3.92;;;;;;;;;;4370688;32;317883;-82
2023/07/20 08:59:35;;;;;;;13.10;4.55;;;;;;;;;;4381826;32;318433;-82
2023/07/20 09:02:03;;;;;;;14.77;4.22;;;;;;;;;;4371465;32;318248;-82
2023/07/20 09:04:30;;;;;;;13.82;4.18;;;;;;;;;;4381143;32;318288;-82
2023/07/20 09:06:59;;;;;;;8.40;4.43;;;;;;;;;;4371659;32;318320;-81
2023/07/20 09:09:25;;;;;;;18.00;5.47;;;;;;;;;;4401405;32;20235;-80
2023/07/20 09:11:52;;;;;;;18.00;5.22;;;;;;;;;;4380223;32;316633;-81
2023/07/20 09:14:19;;;;;;;6.50;4.30;;;;;;;;;;4380461;32;318181;-81
2023/07/20 09:16:51;;;;;;;19.25;4.90;;;;;;;;;;4370874;32;317300;-80
2023/07/20 09:19:18;;;;;;;20.50;4.15;;;;;;;;;;4380464;32;318611;-81
2023/07/20 09:21:49;;;;;;;13.85;4.20;;;;;;;;;;4369945;32;326903;-81
2023/07/20 09:24:16;;;;;;;11.07;4.35;;;;;;;;;;4381037;32;318413;-80
2023/07/20 09:26:43;;;;;;;8.87;4.30;;;;;;;;;;4366735;32;318707;-81
2023/07/20 09:29:11;;;;;;;24.50;6.22;;;;;;;;;;4390571;32;317103;-80
2023/07/20 09:31:38;;;;;;;7.50;3.60;;;;;;;;;;4401072;32;20214;-81
2023/07/20 09:34:07;;;;;;;10.90;4.28;;;;;;;;;;4401084;32;20665;-81
2023/07/20 09:36:35;;;;;;;12.20;4.40;;;;;;;;;;4391221;32;320524;-81
2023/07/20 09:39:03;;;;;;;17.12;4.12;;;;;;;;;;4377046;32;419227;-82
2023/07/20 09:41:30;;;;;;;10.38;3.90;;;;;;;;;;4401022;32;20217;-83
2023/07/20 09:43:57;;;;;;;7.68;3.78;;;;;;;;;;4401182;32;20655;-82
2023/07/20 09:46:24;;;;;;;10.32;3.22;;;;;;;;;;4401103;32;20217;-82
2023/07/20 09:48:54;;;;;;;9.25;3.67;;;;;;;;;;4368928;32;317301;-82
2023/07/20 09:51:23;;;;;;;7.30;4.05;;;;;;;;;;4380054;32;317327;-81
2023/07/20 09:53:50;;;;;;;13.93;3.83;;;;;;;;;;4369910;32;317176;-82
2023/07/20 09:56:18;;;;;;;9.77;4.68;;;;;;;;;;4380386;32;318279;-81
2023/07/20 09:58:46;;;;;;;7.82;4.07;;;;;;;;;;4370356;32;317246;-81
2023/07/20 10:01:16;;;;;;;14.00;3.60;;;;;;;;;;4381558;32;317370;-81
2023/07/20 10:03:46;;;;;;;10.67;3.77;;;;;;;;;;4370210;32;318548;-82
2023/07/20 10:06:19;;;;;;;8.75;4.18;;;;;;;;;;4380357;32;317836;-82
2023/07/20 10:08:49;;;;;;;6.12;4.30;;;;;;;;;;4369892;32;316989;-82
2023/07/20 10:11:18;;;;;;;11.68;4.55;;;;;;;;;;4381303;32;316796;-82
2023/07/20 10:13:45;;;;;;;7.75;4.25;;;;;;;;;;4369350;32;318336;-83
2023/07/20 10:16:15;;;;;;;11.93;4.28;;;;;;;;;;4382067;32;316736;-82
2023/07/20 10:18:50;;;;;;;13.93;4.20;;;;;;;;;;4374324;32;317883;-82
2023/07/20 10:21:19;;;;;;;11.25;4.07;;;;;;;;;;4384265;32;318327;-82
2023/07/20 10:23:48;;;;;;;10.32;4.12;;;;;;;;;;4392657;32;338642;-82
2023/07/20 10:26:15;;;;;;;6.68;3.78;;;;;;;;;;4403586;32;20226;-82
2023/07/20 10:28:42;;;;;;;12.85;4.20;;;;;;;;;;4381742;32;316194;-82
2023/07/20 10:31:10;;;;;;;15.30;4.87;;;;;;;;;;4382899;32;318180;-82
2023/07/20 10:33:38;;;;;;;6.95;4.25;;;;;;;;;;4383708;32;317776;-82
2023/07/20 10:36:06;;;;;;;24.65;4.43;;;;;;;;;;4369981;32;330501;-82
2023/07/20 10:38:42;;;;;;;19.10;4.85;;;;;;;;;;4381849;32;318377;-82
2023/07/20 10:41:20;;;;;;;16.87;5.20;;;;;;;;;;4373805;32;318404;-82
2023/07/20 10:43:48;;;;;;;7.50;3.90;;;;;;;;;;4383387;32;318003;-82
2023/07/20 10:46:16;;;;;;;9.80;3.97;;;;;;;;;;4373978;32;317106;-82
2023/07/20 10:49:03;;;;;;;11.73;4.43;;;;;;;;;;4382471;32;317134;-81
2023/07/20 10:51:30;;;;;;;8.43;4.43;;;;;;;;;;4370828;32;417720;-82
2023/07/20 10:53:58;;;;;;;8.63;3.83;;;;;;;;;;4383140;32;317809;-81
2023/07/20 10:56:29;;;;;;;10.32;4.78;;;;;;;;;;4370820;32;416724;-81
2023/07/20 10:58:59;;;;;;;8.77;4.03;;;;;;;;;;4383253;32;318579;-82
2023/07/20 11:01:29;;;;;;;16.33;5.05;;;;;;;;;;4369786;32;417818;-82
2023/07/20 11:04:00;;;;;;;8.77;4.12;;;;;;;;;;4393040;32;318393;-81
2023/07/20 11:06:34;;;;;;;10.52;4.28;;;;;;;;;;4402981;32;20286;-81
2023/07/20 11:09:10;;;;;;;6.03;3.90;;;;;;;;;;4382714;32;317705;-81
2023/07/20 11:11:40;;;;;;;12.73;5.07;;;;;;;;;;4373382;32;317126;-82
2023/07/20 11:14:08;;;;;;;9.90;4.62;;;;;;;;;;4402018;32;20665;-81
2023/07/20 11:16:37;;;;;;;7.30;4.25;;;;;;;;;;4402678;32;20245;-82
2023/07/20 11:19:04;;;;;;;9.35;4.95;;;;;;;;;;4403217;32;20209;-81
2023/07/20 11:21:37;;;;;;;13.35;4.87;;;;;;;;;;4382915;32;315701;-82
2023/07/20 11:24:05;;;;;;;10.82;5.45;;;;;;;;;;4381803;32;318755;-82
2023/07/20 11:26:40;;;;;;;14.18;5.18;;;;;;;;;;4372023;32;318715;-82
2023/07/20 11:29:08;;;;;;;10.88;4.80;;;;;;;;;;4382558;32;318337;-82
2023/07/20 11:31:36;;;;;;;11.48;5.10;;;;;;;;;;4370205;32;417968;-82
2023/07/20 11:34:03;;;;;;;9.13;4.40;;;;;;;;;;4402699;32;20250;-81
2023/07/20 11:36:30;;;;;;;9.93;4.90;;;;;;;;;;4402537;32;20298;-82
2023/07/20 11:38:56;;;;;;;15.45;5.55;;;;;;;;;;4402132;32;20234;-81
2023/07/20 11:41:23;;;;;;;6.95;4.82;;;;;;;;;;4402461;32;20623;-81
2023/07/20 11:43:50;;;;;;;9.43;4.95;;;;;;;;;;4392246;32;316559;-82
2023/07/20 11:46:18;;;;;;;9.60;4.70;;;;;;;;;;4381566;32;317499;-81
2023/07/20 11:48:45;;;;;;;13.90;4.62;;;;;;;;;;4391251;32;317336;-81
2023/07/20 11:51:15;;;;;;;8.10;4.35;;;;;;;;;;4401871;32;20768;-81
2023/07/20 11:53:42;;;;;;;13.45;5.05;;;;;;;;;;4401890;32;20608;-81
2023/07/20 11:56:09;;;;;;;12.02;5.62;;;;;;;;;;4382030;32;317393;-82
2023/07/20 11:58:36;;;;;;;15.73;5.22;;;;;;;;;;4381673;32;348292;-81
2023/07/20 12:01:03;;;;;;;10.93;5.15;;;;;;;;;;4372575;32;318427;-82
2023/07/20 12:03:31;;;;;;;17.05;5.68;;;;;;;;;;4381402;32;318634;-82
2023/07/20 12:06:07;;;;;;;14.40;5.68;;;;;;;;;;4371226;32;318391;-82
2023/07/20 12:08:34;;;;;;;8.60;4.75;;;;;;;;;;4390675;32;318041;-81
2023/07/20 12:11:01;;;;;;;14.57;4.75;;;;;;;;;;4402344;32;20229;-81
2023/07/20 12:13:37;;;;;;;10.10;5.10;;;;;;;;;;4400616;32;20642;-81
2023/07/20 12:16:13;;;;;;;17.62;4.68;;;;;;;;;;4402016;32;20217;-81
2023/07/20 12:18:41;;;;;;;7.32;4.97;;;;;;;;;;4369258;32;416247;-81
2023/07/20 12:21:08;;;;;;;9.60;4.62;;;;;;;;;;4388406;32;20243;-82
2023/07/20 12:23:42;;;;;;;6.30;4.50;;;;;;;;;;4401592;32;20349;-81
2023/07/20 12:26:10;;;;;;;11.68;5.35;;;;;;;;;;4380882;32;316260;-81
2023/07/20 12:28:41;;;;;;;10.57;5.60;;;;;;;;;;4391447;32;317808;-81
2023/07/20 12:31:08;;;;;;;13.27;5.28;;;;;;;;;;4401791;32;20252;-82
2023/07/20 12:33:34;;;;;;;10.38;5.28;;;;;;;;;;4401727;32;20245;-81
2023/07/20 12:36:03;;;;;;;13.55;5.10;;;;;;;;;;4401806;32;20252;-81
2023/07/20 12:38:30;;;;;;;8.43;5.32;;;;;;;;;;4368263;32;417930;-82
2023/07/20 12:40:58;;;;;;;13.20;5.00;;;;;;;;;;4400541;32;20756;-81
2023/07/20 12:43:25;;;;;;;15.15;6.18;;;;;;;;;;4401615;32;20298;-82
2023/07/20 12:45:51;;;;;;;10.63;5.32;;;;;;;;;;4390429;32;317459;-82
2023/07/20 12:48:18;;;;;;;7.43;5.07;;;;;;;;;;4370718;32;318964;-82
2023/07/20 12:50:45;;;;;;;9.07;5.00;;;;;;;;;;4381802;32;317303;-81
2023/07/20 12:53:13;;;;;;;10.50;5.03;;;;;;;;;;4371523;32;317127;-82
2023/07/20 12:55:40;;;;;;;8.60;5.43;;;;;;;;;;4376696;32;318158;-82
2023/07/20 12:58:08;;;;;;;12.20;6.30;;;;;;;;;;4357350;32;317385;-82
2023/07/20 13:00:35;;;;;;;10.98;4.78;;;;;;;;;;4365372;32;318333;-81
2023/07/20 13:03:04;;;;;;;13.13;5.60;;;;;;;;;;4356854;32;318449;-82
2023/07/20 13:05:31;;;;;;;12.20;4.95;;;;;;;;;;4365926;32;349160;-81
2023/07/20 13:07:58;;;;;;;12.82;5.55;;;;;;;;;;4354448;32;318406;-82
2023/07/20 13:10:26;;;;;;;10.32;5.07;;;;;;;;;;4365369;32;331138;-81
2023/07/20 13:12:53;;;;;;;13.93;5.93;;;;;;;;;;4367080;32;317581;-81
2023/07/20 13:15:19;;;;;;;11.80;5.12;;;;;;;;;;4355477;32;318103;-82
2023/07/20 13:17:47;;;;;;;13.85;5.32;;;;;;;;;;4366568;32;318060;-81
2023/07/20 13:20:14;;;;;;;14.50;5.22;;;;;;;;;;4386002;32;20319;-81
2023/07/20 13:22:41;;;;;;;10.63;5.78;;;;;;;;;;4364808;32;317217;-81
2023/07/20 13:25:09;;;;;;;12.52;4.87;;;;;;;;;;4366594;32;318138;-82
2023/07/20 13:27:37;;;;;;;25.35;6.32;;;;;;;;;;4352546;32;418918;-81
2023/07/20 13:30:06;;;;;;;20.52;5.80;;;;;;;;;;4366959;32;317719;-81
2023/07/20 13:32:33;;;;;;;11.43;5.82;;;;;;;;;;4354965;32;318317;-81
2023/07/20 13:35:00;;;;;;;13.45;6.07;;;;;;;;;;4365338;32;317941;-81
2023/07/20 13:37:27;;;;;;;13.32;5.95;;;;;;;;;;4356789;32;318262;-81
2023/07/20 13:39:53;;;;;;;11.25;5.43;;;;;;;;;;4365666;32;318169;-82
2023/07/20 13:42:21;;;;;;;16.58;5.68;;;;;;;;;;4363510;32;318196;-81
2023/07/20 13:44:49;;;;;;;11.63;5.82;;;;;;;;;;4380093;32;336934;-82
2023/07/20 13:47:16;;;;;;;11.30;6.47;;;;;;;;;;4369223;32;318375;-82
2023/07/20 13:49:42;;;;;;;17.42;5.72;;;;;;;;;;4381587;32;317950;-81
2023/07/20 13:52:09;;;;;;;10.80;5.50;;;;;;;;;;4373327;32;318547;-83
2023/07/20 13:54:36;;;;;;;9.07;6.12;;;;;;;;;;4382935;32;318178;-81
2023/07/20 13:57:03;;;;;;;13.70;5.32;;;;;;;;;;4394173;32;316633;-82
2023/07/20 13:59:30;;;;;;;13.65;5.15;;;;;;;;;;4404604;32;20655;-81
2023/07/20 14:01:58;;;;;;;9.35;5.15;;;;;;;;;;4381877;32;317149;-80
2023/07/20 14:04:25;;;;;;;16.20;5.80;;;;;;;;;;4357180;32;317221;-81
2023/07/20 14:06:51;;;;;;;10.57;5.40;;;;;;;;;;4383693;32;318039;-81
2023/07/20 14:09:18;;;;;;;11.35;6.18;;;;;;;;;;4403918;32;20284;-81
2023/07/20 14:11:45;;;;;;;10.23;5.70;;;;;;;;;;4382857;32;340370;-81
2023/07/20 14:14:12;;;;;;;12.70;6.03;;;;;;;;;;4380739;32;318268;-81
2023/07/20 14:16:39;;;;;;;17.48;5.45;;;;;;;;;;4372740;32;319536;-82
2023/07/20 14:19:07;;;;;;;15.05;6.18;;;;;;;;;;4384235;32;316957;-81
2023/07/20 14:21:34;;;;;;;8.85;5.20;;;;;;;;;;4374191;32;318367;-82
2023/07/20 14:24:01;;;;;;;11.20;5.20;;;;;;;;;;4382243;32;316892;-81
2023/07/20 14:26:28;;;;;;;15.05;5.45;;;;;;;;;;4383687;32;317741;-81
2023/07/20 14:28:55;;;;;;;13.10;5.25;;;;;;;;;;4403580;32;20242;-82